Time;durP1;ratioP1;P1;durP2;ratioP2;P2;SDS_P1;SDS_P2;PMS_P1;PMS_P2;Temp;Humidity;BMP_temperature;BMP_pressure;BME280_temperature;BME280_humidity;BME280_pressure;Samples;Min_cycle;Max_cycle;Signal;HPM_P1;HPM_P2
2021/07/12 00:01:02;;;;;;;0.57;0.57;;;;;;;17.31;76.36;98808.34;5118386;27;38950;-84
2021/07/12 00:03:30;;;;;;;0.80;0.80;;;;;;;17.17;76.05;98796.25;5117220;27;41708;-84
2021/07/12 00:05:58;;;;;;;0.60;0.60;;;;;;;17.12;76.47;98793.13;5131991;27;42191;-86
2021/07/12 00:08:51;;;;;;;0.80;0.80;;;;;;;17.15;76.22;98790.19;5132658;27;42219;-82
2021/07/12 00:11:19;;;;;;;0.67;0.67;;;;;;;17.16;76.48;98791.03;5114216;27;39164;-86
2021/07/12 00:13:48;;;;;;;1.37;1.23;;;;;;;17.13;76.78;98792.16;5113556;27;40845;-86
2021/07/12 00:16:18;;;;;;;0.50;0.50;;;;;;;17.04;76.70;98784.13;5113422;27;42877;-83
2021/07/12 00:18:46;;;;;;;0.70;0.70;;;;;;;17.01;76.75;98777.22;5114019;27;41367;-87
2021/07/12 00:21:13;;;;;;;0.60;0.60;;;;;;;17.08;76.77;98790.88;5132022;27;39923;-83
2021/07/12 00:23:41;;;;;;;0.90;0.90;;;;;;;17.02;76.69;98786.09;5131162;27;40931;-85
2021/07/12 00:26:09;;;;;;;0.53;0.53;;;;;;;17.04;77.06;98790.31;5114653;27;41960;-81
2021/07/12 00:28:37;;;;;;;0.97;0.93;;;;;;;16.94;76.73;98772.56;5113734;27;41196;-86
2021/07/12 00:31:05;;;;;;;0.70;0.70;;;;;;;16.87;77.10;98767.75;5131327;27;39771;-88
2021/07/12 00:33:35;;;;;;;0.70;0.70;;;;;;;17.00;77.50;98782.69;5131572;27;41830;-87
2021/07/12 00:36:04;;;;;;;0.50;0.50;;;;;;;16.96;77.31;98781.25;5130457;27;43807;-82
2021/07/12 00:38:32;;;;;;;0.93;0.93;;;;;;;16.97;77.36;98788.31;5131158;27;42543;-86
2021/07/12 00:41:00;;;;;;;0.80;0.80;;;;;;;16.94;77.48;98789.44;5113373;27;40048;-87
2021/07/12 00:43:28;;;;;;;0.70;0.70;;;;;;;16.86;77.72;98782.09;5130751;27;40859;-83
2021/07/12 00:45:56;;;;;;;0.70;0.70;;;;;;;16.91;77.74;98786.19;5130992;27;42986;-81
2021/07/12 00:48:24;;;;;;;0.93;0.70;;;;;;;16.87;77.70;98789.16;5113909;27;41600;-83
2021/07/12 00:50:54;;;;;;;1.07;0.97;;;;;;;16.85;77.53;98788.44;5130899;27;38899;-87
2021/07/12 00:53:22;;;;;;;1.27;0.73;;;;;;;16.83;77.49;98797.56;5113566;27;40729;-89
2021/07/12 00:55:54;;;;;;;0.80;0.40;;;;;;;16.73;77.26;98778.81;5114256;27;42266;-85
2021/07/12 00:58:26;;;;;;;0.57;0.57;;;;;;;16.67;77.43;98779.38;5116601;27;42553;-88
2021/07/12 01:00:56;;;;;;;0.53;0.53;;;;;;;16.63;77.25;98777.97;5135529;27;40118;-87
2021/07/12 01:03:24;;;;;;;0.70;0.70;;;;;;;16.70;77.04;98787.13;5131168;27;42359;-79
2021/07/12 01:05:54;;;;;;;0.60;0.60;;;;;;;16.66;77.41;98791.06;5149124;27;43319;-80
2021/07/12 01:08:24;;;;;;;0.87;0.87;;;;;;;16.56;77.43;98774.13;5149002;27;43979;-82
2021/07/12 01:11:11;;;;;;;0.70;0.70;;;;;;;16.59;77.73;98781.84;5149197;27;39718;-79
2021/07/12 01:13:49;;;;;;;0.50;0.50;;;;;;;16.54;77.59;98770.72;5132735;27;40919;-79
2021/07/12 01:16:43;;;;;;;0.80;0.80;;;;;;;16.48;77.50;98768.56;5149938;27;43020;-80
2021/07/12 01:19:29;;;;;;;0.60;0.60;;;;;;;16.45;77.33;98767.00;5126781;27;41509;-83
2021/07/12 01:22:33;;;;;;;1.00;1.00;;;;;;;16.43;77.47;98762.81;5159677;27;40402;-81
2021/07/12 01:25:40;;;;;;;0.60;0.60;;;;;;;16.40;77.65;98752.38;5141818;27;41005;-82
2021/07/12 01:28:27;;;;;;;1.10;0.67;;;;;;;16.38;77.38;98757.84;5124147;27;43240;-80
2021/07/12 01:31:34;;;;;;;0.73;0.60;;;;;;;16.35;77.54;98759.94;5123055;27;41562;-81
2021/07/12 01:34:10;;;;;;;0.70;0.70;;;;;;;16.33;77.40;98756.56;5107221;27;40631;-85
2021/07/12 01:36:44;;;;;;;0.60;0.53;;;;;;;16.29;77.14;98749.81;5117629;27;40923;-86
2021/07/12 01:39:16;;;;;;;0.50;0.50;;;;;;;16.10;77.50;98708.66;5133767;27;43134;-83
2021/07/12 01:41:54;;;;;;;0.70;0.70;;;;;;;16.14;77.15;98711.91;5133935;27;43245;-84
2021/07/12 01:44:33;;;;;;;1.03;0.60;;;;;;;16.24;77.33;98725.28;5134858;27;40459;-86
2021/07/12 01:47:07;;;;;;;0.70;0.70;;;;;;;16.20;77.49;98724.72;5133792;27;42790;-84
2021/07/12 01:49:42;;;;;;;0.70;0.70;;;;;;;16.12;77.48;98709.38;5119977;27;41951;-93
2021/07/12 01:52:15;;;;;;;0.70;0.70;;;;;;;16.04;77.45;98709.19;5138511;27;42294;-82
2021/07/12 01:54:57;;;;;;;0.50;0.50;;;;;;;15.91;77.58;98687.19;5121403;27;39952;-82
2021/07/12 01:57:29;;;;;;;0.60;0.60;;;;;;;16.07;77.70;98714.25;5106628;27;41582;-90
2021/07/12 02:00:02;;;;;;;0.63;0.50;;;;;;;15.94;77.62;98697.63;5099917;27;41623;-84
2021/07/12 02:02:53;;;;;;;0.60;0.60;;;;;;;15.93;77.57;98701.28;5136072;27;42223;-91
2021/07/12 02:05:38;;;;;;;0.30;0.30;;;;;;;15.93;77.67;98703.94;5117324;27;40225;-85
2021/07/12 02:08:14;;;;;;;0.70;0.70;;;;;;;15.85;77.74;98695.72;5102622;27;40922;-81
2021/07/12 02:10:47;;;;;;;0.57;0.57;;;;;;;15.90;77.96;98706.88;5100747;27;41698;-82
2021/07/12 02:13:21;;;;;;;0.80;0.80;;;;;;;15.87;77.79;98704.47;5119774;27;42212;-86
2021/07/12 02:16:08;;;;;;;0.60;0.60;;;;;;;15.79;77.82;98694.47;5103613;27;38850;-87
2021/07/12 02:18:38;;;;;;;0.57;0.57;;;;;;;15.83;77.82;98705.69;5124438;27;42372;-79
2021/07/12 02:21:21;;;;;;;1.17;1.00;;;;;;;15.79;77.47;98688.28;5125865;27;41513;-80
2021/07/12 02:23:52;;;;;;;0.80;0.80;;;;;;;15.77;77.62;98695.56;5126701;27;42675;-80
2021/07/12 02:26:23;;;;;;;0.70;0.70;;;;;;;15.61;77.44;98668.47;5092430;27;40055;-79
2021/07/12 02:28:52;;;;;;;0.80;0.50;;;;;;;15.73;77.90;98699.47;5127479;27;41700;-81
2021/07/12 02:31:21;;;;;;;0.60;0.60;;;;;;;15.71;77.72;98696.06;5109124;27;41839;-79
2021/07/12 02:33:53;;;;;;;0.67;0.67;;;;;;;15.72;77.69;98692.44;5111164;27;43597;-79
2021/07/12 02:36:24;;;;;;;0.70;0.70;;;;;;;15.62;78.01;98684.38;5126853;27;40017;-79
2021/07/12 02:38:55;;;;;;;0.40;0.40;;;;;;;15.71;77.90;98696.06;5109531;27;41700;-79
2021/07/12 02:41:26;;;;;;;1.43;1.10;;;;;;;15.64;78.01;98687.75;5109327;27;41812;-81
2021/07/12 02:43:56;;;;;;;0.80;0.80;;;;;;;15.69;78.01;98692.72;5123246;27;41534;-85
2021/07/12 02:46:26;;;;;;;0.77;0.77;;;;;;;15.68;78.67;98688.34;5123655;27;41193;-84
2021/07/12 02:48:55;;;;;;;0.60;0.60;;;;;;;15.72;78.58;98692.44;5106554;27;40695;-83
2021/07/12 02:51:37;;;;;;;0.63;0.63;;;;;;;15.72;78.60;98684.41;5141307;27;43250;-82
2021/07/12 02:54:08;;;;;;;0.67;0.67;;;;;;;15.65;78.96;98672.59;5102450;27;41213;-82
2021/07/12 02:56:39;;;;;;;0.70;0.70;;;;;;;15.76;78.82;98685.84;5141598;27;40282;-89
2021/07/12 02:59:07;;;;;;;1.17;1.10;;;;;;;15.79;79.36;98698.94;5139253;27;41724;-86
2021/07/12 03:01:34;;;;;;;1.20;0.97;;;;;;;15.80;79.35;98695.31;5139989;27;43316;-83
2021/07/12 03:04:03;;;;;;;0.60;0.60;;;;;;;15.82;79.40;98704.03;5118340;27;41914;-85
2021/07/12 03:06:33;;;;;;;1.03;0.97;;;;;;;15.82;79.21;98708.53;5120850;27;40410;-81
2021/07/12 03:09:05;;;;;;;0.50;0.50;;;;;;;15.80;78.97;98701.50;5121696;27;41668;-84
2021/07/12 03:11:38;;;;;;;0.50;0.50;;;;;;;15.79;79.01;98706.97;5119948;27;41953;-92
2021/07/12 03:14:15;;;;;;;0.40;0.40;;;;;;;15.76;79.04;98697.38;5121071;27;41239;-80
2021/07/12 03:16:45;;;;;;;0.60;0.60;;;;;;;15.77;78.87;98703.56;5140682;27;41289;-82
2021/07/12 03:19:20;;;;;;;0.60;0.60;;;;;;;15.82;78.76;98702.19;5140003;27;41881;-88
2021/07/12 03:21:53;;;;;;;0.57;0.57;;;;;;;15.85;78.93;98698.41;5122152;27;41977;-80
2021/07/12 03:24:21;;;;;;;0.53;0.53;;;;;;;15.80;78.85;98689.97;5161204;27;42949;-79
2021/07/12 03:26:53;;;;;;;0.50;0.50;;;;;;;15.81;78.65;98680.97;5140880;27;40188;-92
2021/07/12 03:29:23;;;;;;;1.67;0.77;;;;;;;15.87;78.78;98687.59;5138073;27;42571;-81
2021/07/12 03:31:52;;;;;;;0.60;0.60;;;;;;;15.86;78.97;98692.09;5120573;27;42171;-81
2021/07/12 03:34:21;;;;;;;0.30;0.30;;;;;;;15.76;79.22;98683.19;5119695;27;42479;-87
2021/07/12 03:36:50;;;;;;;0.73;0.73;;;;;;;15.75;79.68;98665.47;5137167;27;41276;-90
2021/07/12 03:39:20;;;;;;;0.70;0.67;;;;;;;15.89;79.39;98689.16;5117808;27;40732;-84
2021/07/12 03:41:48;;;;;;;0.43;0.43;;;;;;;15.85;79.39;98685.06;5156704;27;42730;-83
2021/07/12 03:44:15;;;;;;;0.60;0.60;;;;;;;15.95;79.29;98704.63;5120348;27;41514;-93
2021/07/12 03:46:44;;;;;;;0.70;0.70;;;;;;;16.00;79.11;98698.91;5118726;27;40154;-87
2021/07/12 03:49:16;;;;;;;0.73;0.73;;;;;;;16.07;79.12;98703.56;5138248;27;41708;-88
2021/07/12 03:51:47;;;;;;;0.87;0.60;;;;;;;16.11;78.96;98699.66;5121099;27;41638;-82
2021/07/12 03:54:17;;;;;;;0.50;0.50;;;;;;;16.17;78.95;98701.81;5136944;27;42555;-90
2021/07/12 03:56:46;;;;;;;0.93;0.93;;;;;;;16.09;79.21;98685.56;5115242;27;38897;-92
2021/07/12 03:59:13;;;;;;;0.60;0.60;;;;;;;16.25;79.16;98695.78;5132981;27;40680;-82
2021/07/12 04:01:41;;;;;;;0.47;0.47;;;;;;;16.15;79.10;98685.06;5134507;27;44091;-85
2021/07/12 04:04:09;;;;;;;0.70;0.70;;;;;;;16.27;79.09;98687.63;5134170;27;42115;-84
2021/07/12 04:06:37;;;;;;;0.43;0.43;;;;;;;16.22;79.16;98676.47;5132949;27;40909;-86
2021/07/12 04:09:05;;;;;;;0.60;0.57;;;;;;;16.35;79.10;98685.09;5134263;27;42860;-87
2021/07/12 04:11:34;;;;;;;0.50;0.50;;;;;;;16.31;78.82;98673.03;5115126;27;43196;-86
2021/07/12 04:14:04;;;;;;;0.77;0.57;;;;;;;16.41;79.13;98671.22;5133564;27;42804;-81
2021/07/12 04:16:31;;;;;;;0.70;0.70;;;;;;;16.49;78.62;98676.72;5134216;27;41013;-86
2021/07/12 04:18:59;;;;;;;0.70;0.70;;;;;;;16.60;78.94;98679.25;5118474;27;41542;-83
2021/07/12 04:21:27;;;;;;;0.63;0.60;;;;;;;16.52;78.69;98655.91;5132557;27;43219;-88
2021/07/12 04:23:55;;;;;;;0.50;0.50;;;;;;;16.68;78.56;98679.47;5115651;27;41233;-87
2021/07/12 04:26:22;;;;;;;0.63;0.63;;;;;;;16.62;78.12;98655.06;5114292;27;39604;-89
2021/07/12 04:28:52;;;;;;;0.50;0.50;;;;;;;16.77;78.22;98675.94;5115588;27;40695;-85
2021/07/12 04:31:19;;;;;;;0.50;0.50;;;;;;;16.84;77.99;98674.41;5117752;27;41779;-85
2021/07/12 04:33:47;;;;;;;0.50;0.50;;;;;;;16.93;78.04;98685.25;5138095;27;42471;-82
2021/07/12 04:36:15;;;;;;;0.43;0.43;;;;;;;17.00;78.26;98678.34;5136432;27;39253;-79
2021/07/12 04:38:42;;;;;;;0.40;0.40;;;;;;;17.05;78.30;98684.13;5137341;27;42060;-88
2021/07/12 04:41:10;;;;;;;0.60;0.60;;;;;;;17.10;77.80;98681.88;5152822;27;43304;-83
2021/07/12 04:43:38;;;;;;;0.50;0.50;;;;;;;17.10;77.76;98676.50;5114221;27;42155;-87
2021/07/12 04:46:08;;;;;;;0.70;0.70;;;;;;;17.11;77.64;98662.16;5132202;27;41042;-88
2021/07/12 04:48:37;;;;;;;0.80;0.80;;;;;;;17.28;77.91;98679.34;5114741;27;41923;-86
2021/07/12 04:51:04;;;;;;;0.57;0.57;;;;;;;17.35;77.33;98683.97;5113404;27;42963;-88
2021/07/12 04:53:32;;;;;;;0.97;0.87;;;;;;;17.39;77.17;98672.00;5136437;27;42948;-85
2021/07/12 04:56:00;;;;;;;0.60;0.60;;;;;;;17.43;77.48;98673.38;5121209;27;39921;-80
2021/07/12 04:58:30;;;;;;;0.87;0.70;;;;;;;17.27;77.25;98645.53;5101216;27;41528;-85
2021/07/12 05:00:58;;;;;;;0.60;0.60;;;;;;;17.49;76.91;98666.63;5135447;27;42194;-88
2021/07/12 05:03:32;;;;;;;0.73;0.73;;;;;;;17.39;77.00;98639.03;5118810;27;43297;-89
2021/07/12 05:06:01;;;;;;;0.60;0.43;;;;;;;17.56;76.83;98657.00;5115217;27;40176;-82
2021/07/12 05:08:29;;;;;;;0.40;0.40;;;;;;;17.67;76.69;98658.72;5113378;27;40937;-82
2021/07/12 05:10:57;;;;;;;0.63;0.63;;;;;;;17.66;76.41;98657.88;5095902;27;41788;-84
2021/07/12 05:13:25;;;;;;;0.50;0.50;;;;;;;17.75;76.56;98661.50;5114626;27;41500;-80
2021/07/12 05:15:53;;;;;;;0.83;0.70;;;;;;;17.81;76.66;98644.84;5116796;27;38969;-88
2021/07/12 05:18:20;;;;;;;0.70;0.70;;;;;;;18.00;76.30;98650.13;5136290;27;42204;-88
2021/07/12 05:20:51;;;;;;;0.90;0.80;;;;;;;18.12;76.29;98646.28;5134739;27;42680;-87
2021/07/12 05:23:19;;;;;;;0.80;0.80;;;;;;;18.18;75.90;98632.25;5135588;27;42333;-85
2021/07/12 05:25:46;;;;;;;0.80;0.80;;;;;;;18.21;75.97;98637.34;5117579;27;40033;-87
2021/07/12 05:28:14;;;;;;;0.70;0.70;;;;;;;18.18;75.91;98632.25;5138801;27;41742;-82
2021/07/12 05:30:42;;;;;;;0.80;0.80;;;;;;;18.29;75.80;98640.13;5123362;27;41708;-79
2021/07/12 05:33:13;;;;;;;0.50;0.50;;;;;;;18.46;75.70;98649.19;5119296;27;42400;-86
2021/07/12 05:35:41;;;;;;;1.63;1.53;;;;;;;18.63;75.26;98647.56;5121968;27;39104;-82
2021/07/12 05:38:10;;;;;;;1.07;0.97;;;;;;;18.64;74.95;98635.84;5156348;27;41967;-83
2021/07/12 05:40:38;;;;;;;0.50;0.50;;;;;;;18.63;74.69;98637.69;5136915;27;42653;-83
2021/07/12 05:43:08;;;;;;;0.70;0.70;;;;;;;18.73;74.24;98645.66;5119422;27;41455;-80
2021/07/12 05:45:37;;;;;;;0.70;0.70;;;;;;;18.75;74.30;98629.41;5137900;27;41194;-82
2021/07/12 05:48:05;;;;;;;0.80;0.80;;;;;;;18.99;74.02;98654.63;5135279;27;40980;-84
2021/07/12 05:50:33;;;;;;;0.83;0.77;;;;;;;19.10;73.33;98656.25;5115883;27;43020;-82
2021/07/12 05:53:01;;;;;;;1.03;1.03;;;;;;;19.14;73.09;98654.09;5115422;27;41311;-88
2021/07/12 05:55:30;;;;;;;0.60;0.60;;;;;;;19.19;72.79;98644.56;5107817;27;40217;-82
2021/07/12 05:57:58;;;;;;;0.57;0.57;;;;;;;19.34;72.78;98647.53;5095198;27;40629;-81
2021/07/12 06:00:26;;;;;;;1.07;1.07;;;;;;;19.47;72.11;98652.50;5138014;27;43791;-86
2021/07/12 06:02:54;;;;;;;0.67;0.67;;;;;;;19.49;72.29;98631.72;5133449;27;41401;-87
2021/07/12 06:05:22;;;;;;;0.90;0.90;;;;;;;19.61;72.27;98650.13;5102837;27;39339;-87
2021/07/12 06:07:50;;;;;;;0.80;0.80;;;;;;;19.68;72.17;98653.84;5112059;27;40969;-82
2021/07/12 06:10:19;;;;;;;0.70;0.70;;;;;;;19.77;72.13;98645.84;5112269;27;42708;-87
2021/07/12 06:12:48;;;;;;;0.80;0.80;;;;;;;19.79;71.53;98651.88;5129366;27;42483;-80
2021/07/12 06:15:16;;;;;;;0.60;0.60;;;;;;;19.79;71.17;98636.59;5112927;27;39730;-83
2021/07/12 06:17:45;;;;;;;0.90;0.80;;;;;;;19.98;70.94;98638.25;5095130;27;41397;-83
2021/07/12 06:20:15;;;;;;;0.80;0.80;;;;;;;20.13;70.48;98644.69;5111875;27;41688;-86
2021/07/12 06:22:43;;;;;;;0.60;0.60;;;;;;;20.31;70.58;98672.31;5112027;27;42003;-80
2021/07/12 06:25:12;;;;;;;1.40;0.90;;;;;;;20.40;70.11;98660.63;5099145;27;39152;-85
2021/07/12 06:27:42;;;;;;;1.00;0.90;;;;;;;20.50;69.61;98673.13;5130516;27;40630;-83
2021/07/12 06:30:13;;;;;;;0.93;0.83;;;;;;;20.48;69.89;98667.06;5121977;27;43117;-84
2021/07/12 06:32:41;;;;;;;0.67;0.67;;;;;;;20.57;69.84;98656.13;5098656;27;41126;-84
2021/07/12 06:35:11;;;;;;;1.10;1.00;;;;;;;20.76;69.14;98673.88;5132166;27;41159;-81
2021/07/12 06:37:38;;;;;;;1.23;0.90;;;;;;;20.84;68.40;98676.56;5134871;27;40792;-81
2021/07/12 06:40:08;;;;;;;1.23;1.07;;;;;;;20.93;67.56;98672.88;5141036;27;43960;-82
2021/07/12 06:42:36;;;;;;;0.87;0.87;;;;;;;21.01;67.66;98675.59;5141146;27;41224;-82
2021/07/12 06:45:04;;;;;;;2.07;1.50;;;;;;;21.02;68.24;98652.19;5116218;27;38869;-82
2021/07/12 06:47:34;;;;;;;1.80;1.67;;;;;;;21.20;68.36;98660.16;5135274;27;42042;-82
2021/07/12 06:50:06;;;;;;;1.17;0.90;;;;;;;21.48;67.63;98656.94;5123098;27;43224;-84
2021/07/12 06:52:34;;;;;;;1.10;1.00;;;;;;;21.69;67.30;98661.78;5136029;27;41528;-88
2021/07/12 06:55:02;;;;;;;1.23;1.20;;;;;;;21.77;66.01;98660.94;5136164;27;39246;-85
2021/07/12 06:57:30;;;;;;;0.90;0.90;;;;;;;21.78;65.81;98638.34;5153629;27;41870;-84
2021/07/12 06:59:58;;;;;;;1.40;1.30;;;;;;;21.93;65.32;98630.41;5148318;27;41844;-88
2021/07/12 07:02:25;;;;;;;0.70;0.70;;;;;;;22.18;65.23;98634.72;5115750;27;41165;-91
2021/07/12 07:05:07;;;;;;;0.87;0.87;;;;;;;22.37;64.05;98642.41;5116046;27;38883;-86
2021/07/12 07:07:35;;;;;;;1.10;1.00;;;;;;;22.82;64.31;98638.97;5114901;27;40739;-87
2021/07/12 07:10:04;;;;;;;1.43;1.13;;;;;;;23.07;62.83;98647.75;5133147;27;41638;-85
2021/07/12 07:12:36;;;;;;;0.90;0.90;;;;;;;23.13;62.99;98636.22;5099991;27;41367;-91
2021/07/12 07:15:05;;;;;;;1.33;1.23;;;;;;;23.14;62.41;98613.56;5115875;27;39158;-87
2021/07/12 07:17:32;;;;;;;1.00;1.00;;;;;;;23.36;62.42;98616.44;5116295;27;41728;-87
2021/07/12 07:20:00;;;;;;;1.30;1.20;;;;;;;23.63;61.60;98632.06;5119096;27;41837;-82
2021/07/12 07:22:29;;;;;;;1.07;0.80;;;;;;;23.62;61.31;98633.09;5131712;27;42423;-82
2021/07/12 07:24:57;;;;;;;6.00;3.90;;;;;;;23.68;60.73;98621.56;5139958;27;41123;-84
2021/07/12 07:27:26;;;;;;;1.37;1.27;;;;;;;23.70;60.96;98619.53;5135455;27;40765;-87
2021/07/12 07:29:54;;;;;;;0.93;0.83;;;;;;;24.31;60.63;98641.84;5156522;27;43421;-87
2021/07/12 07:32:22;;;;;;;0.80;0.80;;;;;;;24.95;59.39;98628.47;5137413;27;41286;-89
2021/07/12 07:34:50;;;;;;;0.90;0.90;;;;;;;26.02;56.56;98632.69;5136299;27;39034;-90
2021/07/12 07:37:17;;;;;;;1.23;1.13;;;;;;;26.91;54.54;98638.09;5124593;27;40845;-90
2021/07/12 07:39:48;;;;;;;1.00;0.90;;;;;;;27.61;53.04;98638.66;5116271;27;42022;-86
2021/07/12 07:42:15;;;;;;;0.70;0.70;;;;;;;28.67;49.64;98648.28;5116077;27;41207;-86
2021/07/12 07:44:43;;;;;;;0.63;0.63;;;;;;;30.01;46.88;98661.66;5117207;27;38960;-90
2021/07/12 07:47:11;;;;;;;0.80;0.80;;;;;;;31.15;45.05;98668.31;5117439;27;40957;-87
2021/07/12 07:49:38;;;;;;;1.10;1.10;;;;;;;32.16;43.66;98676.34;5119043;27;41864;-89
2021/07/12 07:52:07;;;;;;;1.37;0.93;;;;;;;33.07;41.03;98691.22;5118609;27;41879;-85
2021/07/12 07:54:35;;;;;;;1.13;1.10;;;;;;;33.70;39.64;98682.78;5118005;27;39133;-85
2021/07/12 07:57:05;;;;;;;1.03;1.03;;;;;;;33.87;38.57;98697.41;5118067;27;40779;-86
2021/07/12 07:59:32;;;;;;;2.97;1.73;;;;;;;33.47;38.82;98681.03;5117004;27;43123;-86
2021/07/12 08:02:00;;;;;;;0.97;0.97;;;;;;;33.18;39.70;98671.97;5117577;27;41218;-84
2021/07/12 08:05:00;;;;;;;1.07;0.97;;;;;;;32.74;40.30;98653.53;5134720;27;41077;-88
2021/07/12 08:07:57;;;;;;;0.77;0.77;;;;;;;32.22;39.90;98675.44;5134389;27;40779;-88
2021/07/12 08:10:26;;;;;;;1.03;1.03;;;;;;;31.48;41.37;98644.00;5117594;27;41923;-89
2021/07/12 08:12:56;;;;;;;1.20;1.10;;;;;;;31.20;43.45;98630.97;5118309;27;42516;-86
2021/07/12 08:15:23;;;;;;;0.90;0.90;;;;;;;31.42;43.34;98625.78;5134710;27;41192;-89
2021/07/12 08:17:52;;;;;;;1.10;1.00;;;;;;;32.21;41.69;98638.13;5117979;27;40966;-88
2021/07/12 08:20:22;;;;;;;0.67;0.67;;;;;;;32.81;40.79;98608.44;5117905;27;43080;-86
2021/07/12 08:22:51;;;;;;;0.80;0.80;;;;;;;33.39;39.69;98628.41;5118375;27;42303;-86
2021/07/12 08:25:57;;;;;;;4.07;3.67;;;;;;;32.31;40.79;98627.38;5104430;27;39908;-86
2021/07/12 08:28:29;;;;;;;1.43;1.30;;;;;;;31.67;42.47;98571.66;5135162;27;41917;-90
2021/07/12 08:30:57;;;;;;;0.77;0.77;;;;;;;32.15;42.90;98606.16;5134664;27;41917;-84
2021/07/12 08:33:25;;;;;;;0.90;0.90;;;;;;;32.32;41.05;98612.59;5134815;27;41204;-87
2021/07/12 08:35:54;;;;;;;1.07;1.07;;;;;;;33.01;39.99;98624.41;5134078;27;38826;-89
2021/07/12 08:38:22;;;;;;;1.73;0.80;;;;;;;33.80;37.94;98630.78;5113365;27;42007;-87
2021/07/12 08:40:49;;;;;;;0.77;0.77;;;;;;;34.53;35.30;98639.81;5113716;27;41505;-88
2021/07/12 08:43:17;;;;;;;0.97;0.97;;;;;;;35.47;34.04;98650.53;5131090;27;42382;-91
2021/07/12 08:45:46;;;;;;;0.80;0.80;;;;;;;36.83;32.80;98647.03;5113646;27;38796;-86
2021/07/12 08:48:39;;;;;;;0.60;0.60;;;;;;;37.93;31.74;98651.09;5131147;27;42172;-88
2021/07/12 08:51:06;;;;;;;0.57;0.57;;;;;;;38.10;30.97;98648.03;5130299;27;42092;-85
2021/07/12 08:53:34;;;;;;;0.67;0.67;;;;;;;38.24;30.02;98651.03;5114197;27;41076;-88
2021/07/12 08:56:02;;;;;;;0.80;0.80;;;;;;;38.78;30.74;98640.91;5113381;27;38770;-89
2021/07/12 08:58:55;;;;;;;6.63;1.00;;;;;;;37.89;30.94;98649.97;5112676;27;40911;-85
2021/07/12 09:05:47;;;;;;;1.03;1.03;;;;;;;37.10;31.04;98592.41;5145727;27;42713;-87
2021/07/12 09:08:38;;;;;;;0.77;0.77;;;;;;;37.16;30.23;98624.50;5111524;27;39516;-88
2021/07/12 09:11:08;;;;;;;0.90;0.90;;;;;;;36.91;30.82;98616.97;5100281;27;42406;-91
2021/07/12 09:13:52;;;;;;;0.83;0.83;;;;;;;36.22;31.89;98591.59;5096073;27;42134;-93
2021/07/12 09:16:30;;;;;;;0.80;0.80;;;;;;;35.95;32.15;98603.53;5096319;27;41727;-85
2021/07/12 09:19:10;;;;;;;0.80;0.80;;;;;;;36.11;32.08;98611.88;5076009;28;40151;-84
2021/07/12 09:22:12;;;;;;;0.80;0.80;;;;;;;35.56;33.53;98591.09;5113926;27;41938;-86
2021/07/12 09:24:50;;;;;;;0.70;0.70;;;;;;;35.18;33.38;98576.44;5116127;27;42711;-89
2021/07/12 09:27:23;;;;;;;1.20;1.10;;;;;;;35.20;33.78;98556.91;5100898;27;42631;-89
2021/07/12 09:29:53;;;;;;;0.50;0.50;;;;;;;35.67;33.64;98554.25;5117383;27;39944;-89
2021/07/12 09:32:24;;;;;;;1.33;1.00;;;;;;;36.01;32.62;98552.00;5117207;27;40974;-85
2021/07/12 09:34:56;;;;;;;0.90;0.90;;;;;;;37.08;30.55;98575.31;5116632;27;42982;-85
2021/07/12 09:37:26;;;;;;;0.80;0.80;;;;;;;37.64;30.23;98578.97;5128809;27;41562;-83
2021/07/12 09:41:06;;;;;;;1.23;1.17;;;;;;;37.39;28.82;98534.75;5142550;27;39277;-83
2021/07/12 09:44:04;;;;;;;1.00;1.00;;;;;;;37.47;29.02;98596.88;5054378;28;41202;-91
2021/07/12 09:46:33;;;;;;;0.70;0.70;;;;;;;37.32;30.32;98568.19;5133045;27;43928;-87
2021/07/12 09:49:10;;;;;;;0.83;0.83;;;;;;;36.83;30.13;98564.25;5116715;27;41756;-88
2021/07/12 09:52:12;;;;;;;0.57;0.57;;;;;;;36.80;30.29;98559.25;5134355;27;38933;-90
2021/07/12 09:54:41;;;;;;;0.80;0.80;;;;;;;36.71;30.38;98561.72;5133963;27;40648;-89
2021/07/12 09:57:13;;;;;;;1.13;0.93;;;;;;;36.99;30.75;98566.72;5132428;27;41633;-89
2021/07/12 09:59:58;;;;;;;0.70;0.70;;;;;;;36.21;29.52;98565.06;5117219;27;41543;-88
2021/07/12 10:02:27;;;;;;;0.67;0.67;;;;;;;35.61;31.23;98538.78;5116577;27;41098;-91
2021/07/12 10:05:00;;;;;;;0.60;0.60;;;;;;;35.90;31.46;98537.34;5116975;27;40809;-87
2021/07/12 10:07:29;;;;;;;0.70;0.70;;;;;;;36.33;31.34;98538.13;5115296;27;43053;-85
2021/07/12 10:09:58;;;;;;;0.93;0.93;;;;;;;35.67;31.91;98521.19;5134664;27;41667;-87
2021/07/12 10:12:27;;;;;;;0.80;0.80;;;;;;;35.75;32.70;98520.72;5119623;27;39187;-88
2021/07/12 10:14:57;;;;;;;0.83;0.83;;;;;;;35.80;31.61;98526.25;5136961;27;42040;-89
2021/07/12 10:17:25;;;;;;;0.80;0.80;;;;;;;35.29;32.01;98522.31;5102727;27;41856;-90
2021/07/12 10:19:53;;;;;;;0.70;0.70;;;;;;;34.91;30.99;98517.81;5118447;27;42005;-89
2021/07/12 10:22:24;;;;;;;0.80;0.80;;;;;;;34.94;32.03;98509.88;5120219;27;39229;-92
2021/07/12 10:24:53;;;;;;;0.90;0.90;;;;;;;35.06;31.96;98498.69;5119105;27;40792;-89
2021/07/12 10:27:23;;;;;;;0.83;0.83;;;;;;;35.41;31.62;98513.84;5119674;27;42043;-88
2021/07/12 10:29:52;;;;;;;0.80;0.60;;;;;;;35.38;31.57;98520.72;5136519;27;41654;-90
2021/07/12 10:32:22;;;;;;;0.77;0.77;;;;;;;35.20;31.13;98521.94;5119241;27;39122;-84
2021/07/12 10:34:52;;;;;;;0.60;0.60;;;;;;;34.97;32.20;98508.53;5136579;27;42365;-87
2021/07/12 10:37:24;;;;;;;0.60;0.60;;;;;;;34.80;31.22;98532.59;5148704;27;42825;-89
2021/07/12 10:40:12;;;;;;;0.70;0.70;;;;;;;34.51;31.79;98516.28;5120324;27;41789;-86
2021/07/12 10:42:51;;;;;;;0.73;0.73;;;;;;;34.34;32.28;98499.06;5100014;27;39139;-84
2021/07/12 10:45:21;;;;;;;0.73;0.73;;;;;;;35.03;31.94;98525.91;5088524;27;42230;-90
2021/07/12 10:47:54;;;;;;;0.83;0.80;;;;;;;35.54;31.32;98518.91;5115889;27;41905;-87
2021/07/12 10:50:49;;;;;;;0.73;0.73;;;;;;;35.75;31.91;98531.75;5143205;27;42234;-87
2021/07/12 10:53:57;;;;;;;0.73;0.73;;;;;;;35.46;31.05;98522.16;5119076;27;39843;-81
2021/07/12 10:56:41;;;;;;;0.70;0.70;;;;;;;35.03;33.41;98501.97;5154330;27;41918;-81
2021/07/12 10:59:24;;;;;;;0.70;0.70;;;;;;;34.55;34.36;98495.44;5136054;27;42786;-82
2021/07/12 11:01:52;;;;;;;0.77;0.77;;;;;;;34.07;33.25;98500.91;5134528;27;42354;-82
2021/07/12 11:04:47;;;;;;;0.60;0.60;;;;;;;33.67;34.56;98491.00;5131581;27;40308;-85
2021/07/12 11:07:16;;;;;;;0.70;0.70;;;;;;;33.40;34.67;98487.31;5135631;27;41065;-81
2021/07/12 11:09:56;;;;;;;0.70;0.70;;;;;;;33.34;34.20;98488.34;5120226;28;43604;-81
2021/07/12 11:12:39;;;;;;;0.63;0.63;;;;;;;33.29;33.59;98491.00;5119478;27;41177;-82
2021/07/12 11:15:45;;;;;;;0.77;0.77;;;;;;;33.32;34.68;98480.34;5140513;27;38580;-82
2021/07/12 11:18:36;;;;;;;0.70;0.70;;;;;;;33.04;34.66;98440.09;5090931;28;42740;-81
2021/07/12 11:25:22;;;;;;;0.90;0.90;;;;;;;32.86;35.45;98426.66;5177768;27;41427;-83
2021/07/12 11:31:47;;;;;;;0.73;0.73;;;;;;;32.82;34.92;98463.88;5129862;27;42046;-82
2021/07/12 11:34:18;;;;;;;0.90;0.90;;;;;;;32.76;36.45;98448.44;5100922;28;43949;-84
2021/07/12 11:36:51;;;;;;;1.73;1.20;;;;;;;32.77;35.84;98447.31;5095179;28;42400;-82
2021/07/12 11:39:20;;;;;;;0.70;0.70;;;;;;;32.89;36.83;98414.34;5093849;28;38955;-88
2021/07/12 11:41:48;;;;;;;0.80;0.80;;;;;;;33.23;33.23;98461.78;5078779;28;42492;-82
2021/07/12 11:44:17;;;;;;;0.70;0.70;;;;;;;33.37;33.41;98443.91;5091270;28;43714;-89
2021/07/12 11:46:49;;;;;;;0.70;0.70;;;;;;;33.46;33.21;98414.94;5113534;27;41459;-85
2021/07/12 11:49:19;;;;;;;0.70;0.70;;;;;;;33.91;33.03;98433.09;5095785;27;40149;-88
2021/07/12 11:51:53;;;;;;;0.93;0.90;;;;;;;34.24;33.43;98436.53;5131545;27;43661;-85
2021/07/12 11:54:23;;;;;;;0.60;0.60;;;;;;;34.59;33.61;98441.59;5112783;27;41820;-84
2021/07/12 11:57:01;;;;;;;0.60;0.60;;;;;;;34.88;33.44;98455.88;5131043;27;43202;-82
2021/07/12 11:59:30;;;;;;;0.80;0.80;;;;;;;34.76;31.72;98480.00;5173535;27;39719;-84
2021/07/12 12:02:16;;;;;;;0.70;0.70;;;;;;;34.81;31.26;98487.47;5158574;27;41519;-85
2021/07/12 12:04:46;;;;;;;0.83;0.83;;;;;;;35.02;30.78;98494.81;5176401;27;43095;-89
2021/07/12 12:07:29;;;;;;;0.50;0.50;;;;;;;35.71;31.54;98478.25;5158945;27;41604;-85
2021/07/12 12:09:59;;;;;;;0.70;0.70;;;;;;;35.76;29.08;98492.06;5153523;27;39137;-85
2021/07/12 12:12:30;;;;;;;1.00;1.00;;;;;;;35.46;29.34;98494.63;5155496;27;43177;-83